sensor_id;sensor_type;location;lat;lon;timestamp;P1;durP1;ratioP1;P2;durP2;ratioP2
28483;SDS011;15704;48.834;8.736;2023-12-22T00:02:23;0.73;;;0.63;;
28483;SDS011;15704;48.834;8.736;2023-12-22T00:04:52;1.00;;;0.68;;
28483;SDS011;15704;48.834;8.736;2023-12-22T00:07:19;0.90;;;0.50;;
28483;SDS011;15704;48.834;8.736;2023-12-22T00:09:46;2.35;;;0.70;;
28483;SDS011;15704;48.834;8.736;2023-12-22T00:12:13;0.50;;;0.38;;
28483;SDS011;15704;48.834;8.736;2023-12-22T00:14:40;0.90;;;0.60;;
28483;SDS011;15704;48.834;8.736;2023-12-22T00:17:07;0.73;;;0.63;;
28483;SDS011;15704;48.834;8.736;2023-12-22T00:19:34;1.08;;;0.70;;
28483;SDS011;15704;48.834;8.736;2023-12-22T00:22:01;0.65;;;0.50;;
28483;SDS011;15704;48.834;8.736;2023-12-22T00:24:29;0.80;;;0.60;;
28483;SDS011;15704;48.834;8.736;2023-12-22T00:26:56;0.80;;;0.60;;
28483;SDS011;15704;48.834;8.736;2023-12-22T00:29:23;0.60;;;0.60;;
28483;SDS011;15704;48.834;8.736;2023-12-22T00:31:50;0.80;;;0.60;;
28483;SDS011;15704;48.834;8.736;2023-12-22T00:34:17;0.93;;;0.70;;
28483;SDS011;15704;48.834;8.736;2023-12-22T00:36:46;1.27;;;0.80;;
28483;SDS011;15704;48.834;8.736;2023-12-22T00:39:12;1.35;;;0.90;;
28483;SDS011;15704;48.834;8.736;2023-12-22T00:41:39;0.70;;;0.50;;
28483;SDS011;15704;48.834;8.736;2023-12-22T00:44:06;1.75;;;0.70;;
28483;SDS011;15704;48.834;8.736;2023-12-22T00:46:33;1.38;;;0.73;;
28483;SDS011;15704;48.834;8.736;2023-12-22T00:48:59;1.15;;;0.60;;
28483;SDS011;15704;48.834;8.736;2023-12-22T00:51:26;0.57;;;0.57;;
28483;SDS011;15704;48.834;8.736;2023-12-22T00:53:53;1.00;;;0.60;;
28483;SDS011;15704;48.834;8.736;2023-12-22T00:56:20;0.75;;;0.57;;
28483;SDS011;15704;48.834;8.736;2023-12-22T00:58:46;0.77;;;0.77;;
28483;SDS011;15704;48.834;8.736;2023-12-22T01:01:27;1.23;;;0.75;;
28483;SDS011;15704;48.834;8.736;2023-12-22T01:03:54;0.70;;;0.50;;
28483;SDS011;15704;48.834;8.736;2023-12-22T01:06:21;1.42;;;0.70;;
28483;SDS011;15704;48.834;8.736;2023-12-22T01:08:52;0.70;;;0.60;;
28483;SDS011;15704;48.834;8.736;2023-12-22T01:11:19;0.47;;;0.47;;
28483;SDS011;15704;48.834;8.736;2023-12-22T01:13:46;0.77;;;0.60;;
28483;SDS011;15704;48.834;8.736;2023-12-22T01:16:13;0.93;;;0.70;;
28483;SDS011;15704;48.834;8.736;2023-12-22T01:18:42;2.50;;;0.68;;
28483;SDS011;15704;48.834;8.736;2023-12-22T01:21:11;1.50;;;0.65;;
28483;SDS011;15704;48.834;8.736;2023-12-22T01:23:38;0.60;;;0.50;;
28483;SDS011;15704;48.834;8.736;2023-12-22T01:26:05;0.50;;;0.50;;
28483;SDS011;15704;48.834;8.736;2023-12-22T01:28:31;0.85;;;0.70;;
28483;SDS011;15704;48.834;8.736;2023-12-22T01:31:00;0.75;;;0.50;;
28483;SDS011;15704;48.834;8.736;2023-12-22T01:33:27;0.98;;;0.52;;
28483;SDS011;15704;48.834;8.736;2023-12-22T01:35:55;0.50;;;0.45;;
28483;SDS011;15704;48.834;8.736;2023-12-22T01:38:22;0.60;;;0.50;;
28483;SDS011;15704;48.834;8.736;2023-12-22T01:40:49;1.45;;;0.73;;
28483;SDS011;15704;48.834;8.736;2023-12-22T01:43:16;0.57;;;0.57;;
28483;SDS011;15704;48.834;8.736;2023-12-22T01:45:48;1.00;;;0.50;;
28483;SDS011;15704;48.834;8.736;2023-12-22T01:48:18;0.70;;;0.50;;
28483;SDS011;15704;48.834;8.736;2023-12-22T01:50:45;0.45;;;0.45;;
28483;SDS011;15704;48.834;8.736;2023-12-22T01:53:12;0.50;;;0.50;;
28483;SDS011;15704;48.834;8.736;2023-12-22T01:55:39;1.02;;;0.60;;
28483;SDS011;15704;48.834;8.736;2023-12-22T01:58:06;0.40;;;0.40;;
28483;SDS011;15704;48.834;8.736;2023-12-22T02:00:36;0.80;;;0.70;;
28483;SDS011;15704;48.834;8.736;2023-12-22T02:03:03;0.82;;;0.50;;
28483;SDS011;15704;48.834;8.736;2023-12-22T02:05:30;0.75;;;0.50;;
28483;SDS011;15704;48.834;8.736;2023-12-22T02:07:57;0.50;;;0.50;;
28483;SDS011;15704;48.834;8.736;2023-12-22T02:10:24;1.75;;;0.75;;
28483;SDS011;15704;48.834;8.736;2023-12-22T02:12:51;0.55;;;0.47;;
28483;SDS011;15704;48.834;8.736;2023-12-22T02:15:18;1.13;;;0.70;;
28483;SDS011;15704;48.834;8.736;2023-12-22T02:17:53;0.77;;;0.60;;
28483;SDS011;15704;48.834;8.736;2023-12-22T02:22:54;0.38;;;0.38;;
28483;SDS011;15704;48.834;8.736;2023-12-22T02:25:21;0.40;;;0.40;;
28483;SDS011;15704;48.834;8.736;2023-12-22T02:27:58;1.05;;;0.50;;
28483;SDS011;15704;48.834;8.736;2023-12-22T02:33:08;0.52;;;0.50;;
28483;SDS011;15704;48.834;8.736;2023-12-22T02:35:36;1.13;;;0.57;;
28483;SDS011;15704;48.834;8.736;2023-12-22T02:38:05;0.88;;;0.50;;
28483;SDS011;15704;48.834;8.736;2023-12-22T02:40:33;0.60;;;0.60;;
28483;SDS011;15704;48.834;8.736;2023-12-22T02:43:02;0.82;;;0.55;;
28483;SDS011;15704;48.834;8.736;2023-12-22T02:45:29;1.17;;;0.60;;
28483;SDS011;15704;48.834;8.736;2023-12-22T02:47:56;0.63;;;0.45;;
28483;SDS011;15704;48.834;8.736;2023-12-22T02:50:23;1.75;;;0.70;;
28483;SDS011;15704;48.834;8.736;2023-12-22T02:52:50;0.70;;;0.60;;
28483;SDS011;15704;48.834;8.736;2023-12-22T02:55:17;1.83;;;0.80;;
28483;SDS011;15704;48.834;8.736;2023-12-22T02:57:45;0.95;;;0.70;;
28483;SDS011;15704;48.834;8.736;2023-12-22T03:00:12;0.55;;;0.50;;
28483;SDS011;15704;48.834;8.736;2023-12-22T03:02:39;0.90;;;0.70;;
28483;SDS011;15704;48.834;8.736;2023-12-22T03:05:05;1.13;;;0.60;;
28483;SDS011;15704;48.834;8.736;2023-12-22T03:07:32;0.90;;;0.55;;
28483;SDS011;15704;48.834;8.736;2023-12-22T03:09:59;1.13;;;0.80;;
28483;SDS011;15704;48.834;8.736;2023-12-22T03:12:26;0.95;;;0.70;;
28483;SDS011;15704;48.834;8.736;2023-12-22T03:14:53;1.20;;;0.60;;
28483;SDS011;15704;48.834;8.736;2023-12-22T03:17:20;1.25;;;0.60;;
28483;SDS011;15704;48.834;8.736;2023-12-22T03:19:46;1.08;;;0.73;;
28483;SDS011;15704;48.834;8.736;2023-12-22T03:22:13;0.77;;;0.70;;
28483;SDS011;15704;48.834;8.736;2023-12-22T03:24:43;1.23;;;0.65;;
28483;SDS011;15704;48.834;8.736;2023-12-22T03:27:10;0.65;;;0.52;;
28483;SDS011;15704;48.834;8.736;2023-12-22T03:29:42;0.98;;;0.70;;
28483;SDS011;15704;48.834;8.736;2023-12-22T03:32:10;1.77;;;0.88;;
28483;SDS011;15704;48.834;8.736;2023-12-22T03:34:37;1.27;;;0.80;;
28483;SDS011;15704;48.834;8.736;2023-12-22T03:37:03;3.40;;;0.68;;
28483;SDS011;15704;48.834;8.736;2023-12-22T03:39:30;1.10;;;0.80;;
28483;SDS011;15704;48.834;8.736;2023-12-22T03:41:57;0.60;;;0.57;;
28483;SDS011;15704;48.834;8.736;2023-12-22T03:44:24;1.27;;;0.70;;
28483;SDS011;15704;48.834;8.736;2023-12-22T03:46:52;0.93;;;0.55;;
28483;SDS011;15704;48.834;8.736;2023-12-22T03:49:18;0.95;;;0.63;;
28483;SDS011;15704;48.834;8.736;2023-12-22T03:51:46;1.52;;;0.70;;
28483;SDS011;15704;48.834;8.736;2023-12-22T03:54:12;1.58;;;0.73;;
28483;SDS011;15704;48.834;8.736;2023-12-22T03:56:42;2.13;;;0.85;;
28483;SDS011;15704;48.834;8.736;2023-12-22T03:59:08;1.08;;;0.77;;
28483;SDS011;15704;48.834;8.736;2023-12-22T04:01:35;1.20;;;0.70;;
28483;SDS011;15704;48.834;8.736;2023-12-22T04:04:02;0.80;;;0.80;;
28483;SDS011;15704;48.834;8.736;2023-12-22T04:06:29;0.98;;;0.70;;
28483;SDS011;15704;48.834;8.736;2023-12-22T04:08:55;1.17;;;0.70;;
28483;SDS011;15704;48.834;8.736;2023-12-22T04:11:22;2.08;;;0.90;;
28483;SDS011;15704;48.834;8.736;2023-12-22T04:13:49;0.90;;;0.70;;
28483;SDS011;15704;48.834;8.736;2023-12-22T04:16:16;1.15;;;0.73;;
28483;SDS011;15704;48.834;8.736;2023-12-22T04:18:43;2.47;;;1.00;;
28483;SDS011;15704;48.834;8.736;2023-12-22T04:21:10;1.67;;;0.90;;
28483;SDS011;15704;48.834;8.736;2023-12-22T04:23:37;1.83;;;1.08;;
28483;SDS011;15704;48.834;8.736;2023-12-22T04:26:03;1.90;;;1.10;;
28483;SDS011;15704;48.834;8.736;2023-12-22T04:28:30;1.05;;;0.90;;
28483;SDS011;15704;48.834;8.736;2023-12-22T04:30:57;2.00;;;0.98;;
28483;SDS011;15704;48.834;8.736;2023-12-22T04:33:24;2.67;;;1.05;;
28483;SDS011;15704;48.834;8.736;2023-12-22T04:35:51;2.85;;;1.40;;
28483;SDS011;15704;48.834;8.736;2023-12-22T04:38:17;2.28;;;1.00;;
28483;SDS011;15704;48.834;8.736;2023-12-22T04:40:44;1.42;;;0.80;;
28483;SDS011;15704;48.834;8.736;2023-12-22T04:43:11;1.40;;;0.98;;
28483;SDS011;15704;48.834;8.736;2023-12-22T04:45:38;1.67;;;1.15;;
28483;SDS011;15704;48.834;8.736;2023-12-22T04:48:05;3.30;;;1.23;;
28483;SDS011;15704;48.834;8.736;2023-12-22T04:50:32;2.05;;;0.82;;
28483;SDS011;15704;48.834;8.736;2023-12-22T04:52:59;1.35;;;0.90;;
28483;SDS011;15704;48.834;8.736;2023-12-22T04:55:26;0.93;;;0.77;;
28483;SDS011;15704;48.834;8.736;2023-12-22T04:57:52;1.70;;;0.98;;
28483;SDS011;15704;48.834;8.736;2023-12-22T05:00:19;1.23;;;0.90;;
28483;SDS011;15704;48.834;8.736;2023-12-22T05:02:46;2.05;;;1.08;;
28483;SDS011;15704;48.834;8.736;2023-12-22T05:05:13;2.30;;;1.10;;
28483;SDS011;15704;48.834;8.736;2023-12-22T05:07:39;1.52;;;0.95;;
28483;SDS011;15704;48.834;8.736;2023-12-22T05:10:06;1.80;;;1.00;;
28483;SDS011;15704;48.834;8.736;2023-12-22T05:12:34;2.38;;;1.13;;
28483;SDS011;15704;48.834;8.736;2023-12-22T05:15:00;2.08;;;1.10;;
28483;SDS011;15704;48.834;8.736;2023-12-22T05:17:27;2.03;;;1.00;;
28483;SDS011;15704;48.834;8.736;2023-12-22T05:19:54;2.00;;;1.20;;
28483;SDS011;15704;48.834;8.736;2023-12-22T05:22:21;2.20;;;1.10;;
28483;SDS011;15704;48.834;8.736;2023-12-22T05:24:48;1.77;;;1.00;;
28483;SDS011;15704;48.834;8.736;2023-12-22T05:27:14;2.30;;;1.25;;
28483;SDS011;15704;48.834;8.736;2023-12-22T05:29:41;2.33;;;1.00;;
28483;SDS011;15704;48.834;8.736;2023-12-22T05:32:08;1.67;;;0.95;;
28483;SDS011;15704;48.834;8.736;2023-12-22T05:34:35;1.60;;;1.02;;
28483;SDS011;15704;48.834;8.736;2023-12-22T05:37:03;2.53;;;1.17;;
28483;SDS011;15704;48.834;8.736;2023-12-22T05:39:30;1.58;;;1.05;;
28483;SDS011;15704;48.834;8.736;2023-12-22T05:41:57;3.10;;;1.35;;
28483;SDS011;15704;48.834;8.736;2023-12-22T05:44:24;1.15;;;0.70;;
28483;SDS011;15704;48.834;8.736;2023-12-22T05:46:50;1.33;;;1.00;;
28483;SDS011;15704;48.834;8.736;2023-12-22T05:49:17;1.70;;;1.00;;
28483;SDS011;15704;48.834;8.736;2023-12-22T05:51:44;1.90;;;1.02;;
28483;SDS011;15704;48.834;8.736;2023-12-22T05:54:11;1.23;;;0.70;;
28483;SDS011;15704;48.834;8.736;2023-12-22T05:56:38;1.90;;;1.20;;
28483;SDS011;15704;48.834;8.736;2023-12-22T05:59:05;2.97;;;1.30;;
28483;SDS011;15704;48.834;8.736;2023-12-22T06:01:32;2.35;;;1.20;;
28483;SDS011;15704;48.834;8.736;2023-12-22T06:03:59;1.92;;;0.90;;
28483;SDS011;15704;48.834;8.736;2023-12-22T06:06:26;2.22;;;1.00;;
28483;SDS011;15704;48.834;8.736;2023-12-22T06:08:54;2.35;;;0.80;;
28483;SDS011;15704;48.834;8.736;2023-12-22T06:11:21;1.98;;;0.95;;
28483;SDS011;15704;48.834;8.736;2023-12-22T06:13:48;2.70;;;1.30;;
28483;SDS011;15704;48.834;8.736;2023-12-22T06:16:15;1.38;;;1.00;;
28483;SDS011;15704;48.834;8.736;2023-12-22T06:18:44;2.50;;;1.02;;
28483;SDS011;15704;48.834;8.736;2023-12-22T06:21:11;1.50;;;1.10;;
28483;SDS011;15704;48.834;8.736;2023-12-22T06:23:38;1.77;;;1.05;;
28483;SDS011;15704;48.834;8.736;2023-12-22T06:26:12;2.83;;;1.20;;
28483;SDS011;15704;48.834;8.736;2023-12-22T06:28:39;1.38;;;0.88;;
28483;SDS011;15704;48.834;8.736;2023-12-22T06:31:07;1.88;;;1.15;;
28483;SDS011;15704;48.834;8.736;2023-12-22T06:33:35;3.25;;;1.20;;
28483;SDS011;15704;48.834;8.736;2023-12-22T06:36:02;2.25;;;1.08;;
28483;SDS011;15704;48.834;8.736;2023-12-22T06:38:30;2.42;;;1.30;;
28483;SDS011;15704;48.834;8.736;2023-12-22T06:40:57;1.92;;;1.13;;
28483;SDS011;15704;48.834;8.736;2023-12-22T06:43:24;1.42;;;0.93;;
28483;SDS011;15704;48.834;8.736;2023-12-22T06:45:51;1.77;;;0.95;;
28483;SDS011;15704;48.834;8.736;2023-12-22T06:48:21;1.77;;;1.00;;
28483;SDS011;15704;48.834;8.736;2023-12-22T06:50:48;1.58;;;0.95;;
28483;SDS011;15704;48.834;8.736;2023-12-22T06:53:15;2.08;;;1.00;;
28483;SDS011;15704;48.834;8.736;2023-12-22T06:55:51;2.40;;;1.10;;
28483;SDS011;15704;48.834;8.736;2023-12-22T06:58:18;1.90;;;0.82;;
28483;SDS011;15704;48.834;8.736;2023-12-22T07:00:47;1.92;;;1.02;;
28483;SDS011;15704;48.834;8.736;2023-12-22T07:03:15;2.50;;;1.10;;
28483;SDS011;15704;48.834;8.736;2023-12-22T07:05:44;2.33;;;1.20;;
28483;SDS011;15704;48.834;8.736;2023-12-22T07:08:11;2.35;;;1.10;;
28483;SDS011;15704;48.834;8.736;2023-12-22T07:10:38;1.33;;;0.95;;
28483;SDS011;15704;48.834;8.736;2023-12-22T07:13:05;2.55;;;1.10;;
28483;SDS011;15704;48.834;8.736;2023-12-22T07:15:32;2.72;;;1.30;;
28483;SDS011;15704;48.834;8.736;2023-12-22T07:17:59;3.95;;;1.30;;
28483;SDS011;15704;48.834;8.736;2023-12-22T07:20:27;2.42;;;1.20;;
28483;SDS011;15704;48.834;8.736;2023-12-22T07:22:54;2.35;;;1.17;;
28483;SDS011;15704;48.834;8.736;2023-12-22T07:25:23;2.60;;;1.15;;
28483;SDS011;15704;48.834;8.736;2023-12-22T07:27:50;1.83;;;0.90;;
28483;SDS011;15704;48.834;8.736;2023-12-22T07:30:18;2.05;;;0.82;;
28483;SDS011;15704;48.834;8.736;2023-12-22T07:32:47;2.03;;;1.10;;
28483;SDS011;15704;48.834;8.736;2023-12-22T07:35:18;2.10;;;1.20;;
28483;SDS011;15704;48.834;8.736;2023-12-22T07:37:45;2.58;;;1.20;;
28483;SDS011;15704;48.834;8.736;2023-12-22T07:40:13;1.10;;;0.95;;
28483;SDS011;15704;48.834;8.736;2023-12-22T07:42:42;1.80;;;1.05;;
28483;SDS011;15704;48.834;8.736;2023-12-22T07:45:09;1.55;;;0.85;;
28483;SDS011;15704;48.834;8.736;2023-12-22T07:47:36;1.88;;;1.00;;
28483;SDS011;15704;48.834;8.736;2023-12-22T07:50:04;0.98;;;0.80;;
28483;SDS011;15704;48.834;8.736;2023-12-22T07:52:35;2.03;;;1.00;;
28483;SDS011;15704;48.834;8.736;2023-12-22T07:55:09;1.17;;;0.90;;
28483;SDS011;15704;48.834;8.736;2023-12-22T07:57:37;1.77;;;0.90;;
28483;SDS011;15704;48.834;8.736;2023-12-22T08:00:05;1.33;;;0.90;;
28483;SDS011;15704;48.834;8.736;2023-12-22T08:02:32;2.38;;;1.23;;
28483;SDS011;15704;48.834;8.736;2023-12-22T08:04:59;2.45;;;1.02;;
28483;SDS011;15704;48.834;8.736;2023-12-22T08:07:26;1.20;;;0.75;;
28483;SDS011;15704;48.834;8.736;2023-12-22T08:09:53;1.77;;;1.23;;
28483;SDS011;15704;48.834;8.736;2023-12-22T08:12:20;2.15;;;1.15;;
28483;SDS011;15704;48.834;8.736;2023-12-22T08:14:47;1.92;;;1.10;;
28483;SDS011;15704;48.834;8.736;2023-12-22T08:17:13;2.28;;;1.00;;
28483;SDS011;15704;48.834;8.736;2023-12-22T08:19:40;1.58;;;0.88;;
28483;SDS011;15704;48.834;8.736;2023-12-22T08:22:12;1.83;;;1.00;;
28483;SDS011;15704;48.834;8.736;2023-12-22T08:24:40;2.33;;;1.08;;
28483;SDS011;15704;48.834;8.736;2023-12-22T08:27:08;1.63;;;1.05;;
28483;SDS011;15704;48.834;8.736;2023-12-22T08:29:35;1.77;;;0.80;;
28483;SDS011;15704;48.834;8.736;2023-12-22T08:32:02;2.25;;;1.00;;
28483;SDS011;15704;48.834;8.736;2023-12-22T08:34:30;1.85;;;1.15;;
28483;SDS011;15704;48.834;8.736;2023-12-22T08:36:57;2.05;;;1.10;;
28483;SDS011;15704;48.834;8.736;2023-12-22T08:39:24;1.58;;;1.10;;
28483;SDS011;15704;48.834;8.736;2023-12-22T08:41:51;0.75;;;0.70;;
28483;SDS011;15704;48.834;8.736;2023-12-22T08:44:19;2.55;;;1.20;;
28483;SDS011;15704;48.834;8.736;2023-12-22T08:46:46;2.08;;;1.10;;
28483;SDS011;15704;48.834;8.736;2023-12-22T08:49:13;2.38;;;1.15;;
28483;SDS011;15704;48.834;8.736;2023-12-22T08:51:40;2.67;;;1.13;;
28483;SDS011;15704;48.834;8.736;2023-12-22T08:54:07;2.00;;;1.02;;
28483;SDS011;15704;48.834;8.736;2023-12-22T08:56:34;2.28;;;1.05;;
28483;SDS011;15704;48.834;8.736;2023-12-22T08:59:01;5.85;;;0.98;;
28483;SDS011;15704;48.834;8.736;2023-12-22T09:01:28;2.30;;;1.20;;
28483;SDS011;15704;48.834;8.736;2023-12-22T09:03:55;2.75;;;1.25;;
28483;SDS011;15704;48.834;8.736;2023-12-22T09:06:22;2.45;;;1.13;;
28483;SDS011;15704;48.834;8.736;2023-12-22T09:08:50;2.42;;;1.00;;
28483;SDS011;15704;48.834;8.736;2023-12-22T09:11:19;3.30;;;1.30;;
28483;SDS011;15704;48.834;8.736;2023-12-22T09:13:46;2.15;;;1.10;;
28483;SDS011;15704;48.834;8.736;2023-12-22T09:16:13;1.48;;;1.10;;
28483;SDS011;15704;48.834;8.736;2023-12-22T09:18:46;2.33;;;1.15;;
28483;SDS011;15704;48.834;8.736;2023-12-22T09:21:13;1.95;;;1.00;;
28483;SDS011;15704;48.834;8.736;2023-12-22T09:23:40;2.17;;;1.20;;
28483;SDS011;15704;48.834;8.736;2023-12-22T09:26:10;2.72;;;1.00;;
28483;SDS011;15704;48.834;8.736;2023-12-22T09:28:37;3.15;;;1.02;;
28483;SDS011;15704;48.834;8.736;2023-12-22T09:31:04;2.53;;;1.35;;
28483;SDS011;15704;48.834;8.736;2023-12-22T09:33:32;4.20;;;1.63;;
28483;SDS011;15704;48.834;8.736;2023-12-22T09:35:59;3.22;;;1.40;;
28483;SDS011;15704;48.834;8.736;2023-12-22T09:38:26;3.42;;;1.55;;
28483;SDS011;15704;48.834;8.736;2023-12-22T09:40:54;1.75;;;1.00;;
28483;SDS011;15704;48.834;8.736;2023-12-22T09:43:22;2.55;;;1.17;;
28483;SDS011;15704;48.834;8.736;2023-12-22T09:45:50;3.72;;;1.30;;
28483;SDS011;15704;48.834;8.736;2023-12-22T09:48:17;2.90;;;1.27;;
28483;SDS011;15704;48.834;8.736;2023-12-22T09:50:47;1.55;;;1.00;;
28483;SDS011;15704;48.834;8.736;2023-12-22T09:53:14;2.10;;;1.25;;
28483;SDS011;15704;48.834;8.736;2023-12-22T09:55:42;2.45;;;1.17;;
28483;SDS011;15704;48.834;8.736;2023-12-22T09:58:13;2.35;;;1.35;;
28483;SDS011;15704;48.834;8.736;2023-12-22T10:00:41;3.00;;;1.17;;
28483;SDS011;15704;48.834;8.736;2023-12-22T10:03:09;2.72;;;1.13;;
28483;SDS011;15704;48.834;8.736;2023-12-22T10:05:40;2.22;;;1.25;;
28483;SDS011;15704;48.834;8.736;2023-12-22T10:08:08;1.17;;;1.00;;
28483;SDS011;15704;48.834;8.736;2023-12-22T10:10:38;2.13;;;1.25;;
28483;SDS011;15704;48.834;8.736;2023-12-22T10:13:06;2.20;;;1.10;;
28483;SDS011;15704;48.834;8.736;2023-12-22T10:15:41;3.30;;;1.30;;
28483;SDS011;15704;48.834;8.736;2023-12-22T10:18:09;1.65;;;1.13;;
28483;SDS011;15704;48.834;8.736;2023-12-22T10:20:37;2.65;;;1.40;;
28483;SDS011;15704;48.834;8.736;2023-12-22T10:23:04;2.45;;;1.20;;
28483;SDS011;15704;48.834;8.736;2023-12-22T10:25:32;2.30;;;1.15;;
28483;SDS011;15704;48.834;8.736;2023-12-22T10:27:59;1.80;;;1.08;;
28483;SDS011;15704;48.834;8.736;2023-12-22T10:30:26;2.10;;;0.98;;
28483;SDS011;15704;48.834;8.736;2023-12-22T10:32:54;2.38;;;1.23;;
28483;SDS011;15704;48.834;8.736;2023-12-22T10:35:21;2.88;;;1.42;;
28483;SDS011;15704;48.834;8.736;2023-12-22T10:37:49;3.20;;;1.40;;
28483;SDS011;15704;48.834;8.736;2023-12-22T10:40:20;1.88;;;1.38;;
28483;SDS011;15704;48.834;8.736;2023-12-22T10:42:49;2.50;;;0.93;;
28483;SDS011;15704;48.834;8.736;2023-12-22T10:45:20;2.60;;;1.27;;
28483;SDS011;15704;48.834;8.736;2023-12-22T10:47:48;2.38;;;1.30;;
28483;SDS011;15704;48.834;8.736;2023-12-22T10:52:50;4.30;;;1.17;;
28483;SDS011;15704;48.834;8.736;2023-12-22T10:55:17;1.80;;;1.23;;
28483;SDS011;15704;48.834;8.736;2023-12-22T10:57:48;1.75;;;1.13;;
28483;SDS011;15704;48.834;8.736;2023-12-22T11:00:15;3.63;;;1.30;;
28483;SDS011;15704;48.834;8.736;2023-12-22T11:02:43;3.10;;;1.40;;
28483;SDS011;15704;48.834;8.736;2023-12-22T11:05:15;2.92;;;1.23;;
28483;SDS011;15704;48.834;8.736;2023-12-22T11:07:48;2.95;;;1.45;;
28483;SDS011;15704;48.834;8.736;2023-12-22T11:10:20;2.17;;;1.20;;
28483;SDS011;15704;48.834;8.736;2023-12-22T11:12:47;2.20;;;1.27;;
28483;SDS011;15704;48.834;8.736;2023-12-22T11:15:15;2.22;;;1.05;;
28483;SDS011;15704;48.834;8.736;2023-12-22T11:17:44;1.85;;;1.20;;
28483;SDS011;15704;48.834;8.736;2023-12-22T11:20:15;2.70;;;1.40;;
28483;SDS011;15704;48.834;8.736;2023-12-22T11:22:42;2.15;;;1.00;;
28483;SDS011;15704;48.834;8.736;2023-12-22T11:25:10;1.35;;;0.82;;
28483;SDS011;15704;48.834;8.736;2023-12-22T11:27:42;4.18;;;1.42;;
28483;SDS011;15704;48.834;8.736;2023-12-22T11:30:11;1.65;;;0.95;;
28483;SDS011;15704;48.834;8.736;2023-12-22T11:32:40;1.38;;;0.82;;
28483;SDS011;15704;48.834;8.736;2023-12-22T11:35:10;2.60;;;1.23;;
28483;SDS011;15704;48.834;8.736;2023-12-22T11:37:37;1.55;;;1.08;;
28483;SDS011;15704;48.834;8.736;2023-12-22T11:40:05;1.95;;;1.13;;
28483;SDS011;15704;48.834;8.736;2023-12-22T11:42:37;1.98;;;1.10;;
28483;SDS011;15704;48.834;8.736;2023-12-22T11:45:13;2.35;;;1.05;;
28483;SDS011;15704;48.834;8.736;2023-12-22T11:47:42;0.93;;;0.82;;
28483;SDS011;15704;48.834;8.736;2023-12-22T11:50:09;1.75;;;1.10;;
28483;SDS011;15704;48.834;8.736;2023-12-22T11:52:39;2.58;;;1.02;;
28483;SDS011;15704;48.834;8.736;2023-12-22T11:55:07;2.30;;;1.20;;
28483;SDS011;15704;48.834;8.736;2023-12-22T11:57:35;1.52;;;1.05;;
28483;SDS011;15704;48.834;8.736;2023-12-22T12:02:34;1.08;;;0.93;;
28483;SDS011;15704;48.834;8.736;2023-12-22T12:05:05;2.85;;;1.08;;
28483;SDS011;15704;48.834;8.736;2023-12-22T12:10:57;4.95;;;1.00;;
28483;SDS011;15704;48.834;8.736;2023-12-22T12:13:10;6.97;;;1.48;;
28483;SDS011;15704;48.834;8.736;2023-12-22T12:15:38;1.52;;;0.90;;
28483;SDS011;15704;48.834;8.736;2023-12-22T12:18:05;3.72;;;1.40;;
28483;SDS011;15704;48.834;8.736;2023-12-22T12:20:32;2.38;;;1.40;;
28483;SDS011;15704;48.834;8.736;2023-12-22T12:23:03;5.65;;;1.50;;
28483;SDS011;15704;48.834;8.736;2023-12-22T12:25:34;1.77;;;1.17;;
28483;SDS011;15704;48.834;8.736;2023-12-22T12:28:06;5.10;;;1.35;;
28483;SDS011;15704;48.834;8.736;2023-12-22T12:30:38;4.95;;;1.25;;
28483;SDS011;15704;48.834;8.736;2023-12-22T12:33:06;2.28;;;1.10;;
28483;SDS011;15704;48.834;8.736;2023-12-22T12:35:37;4.78;;;1.15;;
28483;SDS011;15704;48.834;8.736;2023-12-22T12:38:11;1.38;;;1.00;;
28483;SDS011;15704;48.834;8.736;2023-12-22T12:40:39;3.55;;;0.95;;
28483;SDS011;15704;48.834;8.736;2023-12-22T12:43:07;2.83;;;1.20;;
28483;SDS011;15704;48.834;8.736;2023-12-22T12:45:34;1.55;;;0.90;;
28483;SDS011;15704;48.834;8.736;2023-12-22T12:48:02;5.60;;;1.33;;
28483;SDS011;15704;48.834;8.736;2023-12-22T12:50:32;4.82;;;1.10;;
28483;SDS011;15704;48.834;8.736;2023-12-22T12:53:00;1.95;;;1.27;;
28483;SDS011;15704;48.834;8.736;2023-12-22T12:55:27;2.55;;;1.10;;
28483;SDS011;15704;48.834;8.736;2023-12-22T12:57:55;3.42;;;1.33;;
28483;SDS011;15704;48.834;8.736;2023-12-22T13:00:26;2.50;;;1.55;;
28483;SDS011;15704;48.834;8.736;2023-12-22T13:02:59;2.13;;;1.02;;
28483;SDS011;15704;48.834;8.736;2023-12-22T13:05:29;4.95;;;1.13;;
28483;SDS011;15704;48.834;8.736;2023-12-22T13:08:06;1.48;;;0.90;;
28483;SDS011;15704;48.834;8.736;2023-12-22T13:10:38;1.67;;;1.03;;
28483;SDS011;15704;48.834;8.736;2023-12-22T13:13:06;1.50;;;0.85;;
28483;SDS011;15704;48.834;8.736;2023-12-22T13:15:33;1.08;;;0.73;;
28483;SDS011;15704;48.834;8.736;2023-12-22T13:18:00;1.42;;;1.02;;
28483;SDS011;15704;48.834;8.736;2023-12-22T13:20:27;1.52;;;0.90;;
28483;SDS011;15704;48.834;8.736;2023-12-22T13:22:54;2.65;;;0.93;;
28483;SDS011;15704;48.834;8.736;2023-12-22T13:25:21;1.30;;;0.80;;
28483;SDS011;15704;48.834;8.736;2023-12-22T13:27:51;1.65;;;1.00;;
28483;SDS011;15704;48.834;8.736;2023-12-22T13:30:37;1.73;;;1.02;;
28483;SDS011;15704;48.834;8.736;2023-12-22T13:33:08;2.58;;;0.70;;
28483;SDS011;15704;48.834;8.736;2023-12-22T13:35:36;1.55;;;0.90;;
28483;SDS011;15704;48.834;8.736;2023-12-22T13:38:09;1.48;;;1.02;;
28483;SDS011;15704;48.834;8.736;2023-12-22T13:40:38;1.60;;;1.05;;
28483;SDS011;15704;48.834;8.736;2023-12-22T13:43:05;2.75;;;0.98;;
28483;SDS011;15704;48.834;8.736;2023-12-22T13:45:34;1.63;;;1.10;;
28483;SDS011;15704;48.834;8.736;2023-12-22T13:48:01;1.17;;;0.70;;
28483;SDS011;15704;48.834;8.736;2023-12-22T13:50:28;1.20;;;0.90;;
28483;SDS011;15704;48.834;8.736;2023-12-22T13:52:55;1.80;;;0.90;;
28483;SDS011;15704;48.834;8.736;2023-12-22T13:55:22;1.25;;;0.70;;
28483;SDS011;15704;48.834;8.736;2023-12-22T13:57:58;1.00;;;0.70;;
28483;SDS011;15704;48.834;8.736;2023-12-22T14:00:29;0.60;;;0.60;;
28483;SDS011;15704;48.834;8.736;2023-12-22T14:02:57;0.60;;;0.60;;
28483;SDS011;15704;48.834;8.736;2023-12-22T14:05:25;1.23;;;0.68;;
28483;SDS011;15704;48.834;8.736;2023-12-22T14:07:57;0.82;;;0.70;;
28483;SDS011;15704;48.834;8.736;2023-12-22T14:10:23;1.05;;;0.80;;
28483;SDS011;15704;48.834;8.736;2023-12-22T14:12:51;0.77;;;0.60;;
28483;SDS011;15704;48.834;8.736;2023-12-22T14:15:18;0.95;;;0.70;;
28483;SDS011;15704;48.834;8.736;2023-12-22T14:17:45;0.43;;;0.43;;
28483;SDS011;15704;48.834;8.736;2023-12-22T14:20:13;0.80;;;0.60;;
28483;SDS011;15704;48.834;8.736;2023-12-22T14:22:40;1.05;;;0.50;;
28483;SDS011;15704;48.834;8.736;2023-12-22T14:25:07;1.50;;;0.70;;
28483;SDS011;15704;48.834;8.736;2023-12-22T14:27:35;1.15;;;0.70;;
28483;SDS011;15704;48.834;8.736;2023-12-22T14:30:01;0.47;;;0.47;;
28483;SDS011;15704;48.834;8.736;2023-12-22T14:32:29;1.60;;;0.77;;
28483;SDS011;15704;48.834;8.736;2023-12-22T14:34:56;1.58;;;0.70;;
28483;SDS011;15704;48.834;8.736;2023-12-22T14:37:23;0.50;;;0.50;;
28483;SDS011;15704;48.834;8.736;2023-12-22T14:39:50;0.52;;;0.50;;
28483;SDS011;15704;48.834;8.736;2023-12-22T14:42:18;0.82;;;0.65;;
28483;SDS011;15704;48.834;8.736;2023-12-22T14:44:45;1.27;;;0.65;;
28483;SDS011;15704;48.834;8.736;2023-12-22T14:47:11;0.70;;;0.50;;
28483;SDS011;15704;48.834;8.736;2023-12-22T14:49:39;0.82;;;0.60;;
28483;SDS011;15704;48.834;8.736;2023-12-22T14:52:07;0.60;;;0.60;;
28483;SDS011;15704;48.834;8.736;2023-12-22T14:54:34;1.00;;;0.70;;
28483;SDS011;15704;48.834;8.736;2023-12-22T14:57:01;1.13;;;0.60;;
28483;SDS011;15704;48.834;8.736;2023-12-22T14:59:28;1.10;;;0.60;;
28483;SDS011;15704;48.834;8.736;2023-12-22T15:01:55;0.55;;;0.52;;
28483;SDS011;15704;48.834;8.736;2023-12-22T15:04:22;0.98;;;0.73;;
28483;SDS011;15704;48.834;8.736;2023-12-22T15:06:49;0.80;;;0.70;;